Dover, TN (37058)

12:17 AM CDT on May 01, 2017 (GMT -0500)
Dover, TN - LBL | | Change Station

Elev 455 ft 36.49 °N, 87.81 °W | Updated 10 seconds ago

Rain
Rain
62.7 °F
Feels Like 62.7 °F
N
4.6
Wind Variable Wind from SW
Gusts 4.6 mph

Today
High -- | Low -- °F
--% Chance of Precip.
Yesterday
High -- | Low -- °F
Precip. -- in
Pressure 29.68 in
Visibility 3.0 miles
Clouds Scattered Clouds 200 ft
Overcast 2300 ft
Dew Point 60 °F
Humidity 92%
Rainfall 0.02 in
Snow Depth Not available.
5:57 AM 7:39 PM
Waxing Crescent, 29% visible
SPECI KHOP 010509Z AUTO 20015G23KT 3SM R23/4000FT -RA BR SCT002 OVC023 19/18 A2969 RMK AO2 CIG 002V023 SLP051
Pressure 29.68 in
Visibility 3.0 miles
Clouds Scattered Clouds 200 ft
Overcast 2300 ft
Dew Point 60 °F
Humidity 92%
Rainfall 0.02 in
Snow Depth Not available.
5:57 AM 7:39 PM
Waxing Crescent, 29% visible
SPECI KHOP 010509Z AUTO 20015G23KT 3SM R23/4000FT -RA BR SCT002 OVC023 19/18 A2969 RMK AO2 CIG 002V023 SLP051

Get Severe Weather Alerts

Thanks for signing up!

Be on the lookout for a verification email in your inbox.

You'll start receiving the daily forecast at 8 AM.

×

10-Day Weather Forecast

Almanac

Astronomy

May. 01, 2017 Rise Set
Actual Time
Civil Twilight
Nautical Twilight
Astronomical Twilight
Moon
Length of Visible Light
Length of Day
Tomorrow will be .
, % of the Moon is Illuminated

Today's Extremes

State Highs State Lows

Community

WunderPhotos

WunderBlog® & News

Nearby

Air Quality

  Air Quality AQ Index Pollutant
Not available.

Snow Depth

Station Depth Elevation

Earthquake Activity

City Distance Mag. Time & Date
Minimum magnitude displayed is 2.5.

Coastal Water Temperatures

Place Temperature

Stations

Nearby Weather Stations

Station Location Temp. Windchill Dew Point Humidity Wind Precip. Elev Updated Type
                   

Watches & Warnings

There are currently no watches in effect.